Time;durP1;ratioP1;P1;durP2;ratioP2;P2;SDS_P1;SDS_P2;PMS_P1;PMS_P2;Temp;Humidity;BMP_temperature;BMP_pressure;BME280_temperature;BME280_humidity;BME280_pressure;Samples;Min_cycle;Max_cycle;Signal;HPM_P1;HPM_P2
2021/03/09 00:01:11;;;;;;;8.25;5.68;;;-1.90;67.60;;;;;;5060320;28;20408;-75
2021/03/09 00:03:37;;;;;;;11.07;6.40;;;-1.90;67.10;;;;;;5058727;28;20025;-74
2021/03/09 00:06:03;;;;;;;10.85;5.68;;;-1.90;67.10;;;;;;5088345;28;20028;-75
2021/03/09 00:08:28;;;;;;;9.63;5.70;;;-2.00;67.20;;;;;;5063946;28;20036;-75
2021/03/09 00:10:54;;;;;;;10.27;5.22;;;-2.00;67.30;;;;;;5076757;28;20043;-74
2021/03/09 00:13:20;;;;;;;9.48;5.03;;;-2.00;67.50;;;;;;5054510;28;20459;-74
2021/03/09 00:15:45;;;;;;;11.07;6.07;;;-2.00;67.50;;;;;;5054311;28;20029;-74
2021/03/09 00:18:11;;;;;;;12.45;6.18;;;-2.00;67.50;;;;;;5054491;28;20104;-74
2021/03/09 00:20:37;;;;;;;8.80;5.68;;;-2.10;67.50;;;;;;5054320;28;20025;-74
2021/03/09 00:23:04;;;;;;;9.27;5.65;;;-2.10;67.60;;;;;;5036167;28;20025;-74
2021/03/09 00:25:31;;;;;;;10.15;6.28;;;-2.10;67.80;;;;;;5054521;28;20104;-74
2021/03/09 00:27:56;;;;;;;9.55;5.63;;;-2.10;67.90;;;;;;5053175;28;20464;-76
2021/03/09 00:30:22;;;;;;;11.15;6.38;;;-2.10;67.80;;;;;;5050228;28;20075;-74
2021/03/09 00:32:49;;;;;;;8.98;6.22;;;-2.20;67.70;;;;;;5036160;28;20024;-74
2021/03/09 00:35:15;;;;;;;12.50;6.38;;;-2.20;67.80;;;;;;5035802;28;20051;-74
2021/03/09 00:37:40;;;;;;;10.70;6.15;;;-2.20;67.90;;;;;;5036318;28;20052;-74
2021/03/09 00:40:07;;;;;;;12.13;6.28;;;-2.20;67.90;;;;;;5036320;28;20079;-74
2021/03/09 00:42:33;;;;;;;9.60;5.88;;;-2.30;67.80;;;;;;5054228;28;20025;-74
2021/03/09 00:44:58;;;;;;;10.68;6.30;;;-2.30;67.90;;;;;;5049668;28;20028;-75
2021/03/09 00:47:24;;;;;;;11.30;6.60;;;-2.30;68.00;;;;;;5035824;28;20036;-74
2021/03/09 00:49:50;;;;;;;10.73;6.03;;;-2.30;68.00;;;;;;5053776;28;20064;-74
2021/03/09 00:52:15;;;;;;;13.05;6.63;;;-2.30;68.10;;;;;;5053563;28;20096;-74
2021/03/09 00:54:41;;;;;;;9.90;5.90;;;-2.30;68.10;;;;;;5035725;28;20029;-74
2021/03/09 00:57:07;;;;;;;12.90;6.65;;;-2.40;68.00;;;;;;5035501;28;20078;-74
2021/03/09 00:59:33;;;;;;;8.95;6.03;;;-2.40;68.10;;;;;;5053750;28;20101;-74
2021/03/09 01:01:59;;;;;;;10.18;6.38;;;-2.40;68.20;;;;;;5053257;28;20116;-75
2021/03/09 01:04:24;;;;;;;11.32;6.30;;;-2.40;68.20;;;;;;5068597;28;20027;-74
2021/03/09 01:06:50;;;;;;;8.48;5.82;;;-2.40;68.20;;;;;;5037228;28;20078;-74
2021/03/09 01:09:16;;;;;;;10.98;6.35;;;-2.50;68.30;;;;;;5093217;28;20044;-75
2021/03/09 01:11:42;;;;;;;14.25;7.25;;;-2.50;68.50;;;;;;5071637;28;20115;-74
2021/03/09 01:14:07;;;;;;;11.40;6.20;;;-2.60;68.50;;;;;;5093688;28;20158;-75
2021/03/09 01:16:33;;;;;;;9.23;6.07;;;-2.50;68.50;;;;;;5075385;28;20020;-74
2021/03/09 01:18:59;;;;;;;10.20;6.13;;;-2.50;68.40;;;;;;5093342;28;20028;-74
2021/03/09 01:21:24;;;;;;;10.05;6.03;;;-2.60;68.30;;;;;;5093624;28;20048;-73
2021/03/09 01:23:50;;;;;;;9.45;5.97;;;-2.60;68.40;;;;;;5061025;28;20027;-73
2021/03/09 01:26:16;;;;;;;11.02;6.55;;;-2.60;68.40;;;;;;5093665;28;20458;-73
2021/03/09 01:28:41;;;;;;;9.50;6.15;;;-2.60;68.30;;;;;;5074634;28;20082;-73
2021/03/09 01:31:09;;;;;;;10.77;5.97;;;-2.60;68.30;;;;;;5093062;28;20115;-74
2021/03/09 01:33:34;;;;;;;11.07;6.45;;;-2.60;68.40;;;;;;5075121;28;20064;-73
2021/03/09 01:36:00;;;;;;;8.23;5.65;;;-2.60;68.30;;;;;;5074999;28;20421;-73
2021/03/09 01:38:26;;;;;;;10.40;6.18;;;-2.60;68.40;;;;;;5092979;28;20132;-73
2021/03/09 01:40:52;;;;;;;10.95;6.72;;;-2.60;68.30;;;;;;5092855;28;20028;-73
2021/03/09 01:43:18;;;;;;;9.68;6.25;;;-2.70;68.20;;;;;;5093029;28;20047;-73
2021/03/09 01:45:44;;;;;;;10.68;6.25;;;-2.70;68.30;;;;;;5060591;28;20024;-74
2021/03/09 01:48:10;;;;;;;12.48;6.10;;;-2.70;68.30;;;;;;5085779;28;20077;-73
2021/03/09 01:50:41;;;;;;;10.95;5.72;;;-2.70;68.30;;;;;;5072977;28;20032;-73
2021/03/09 01:53:08;;;;;;;11.98;7.00;;;-2.70;69.20;;;;;;5074693;28;20028;-73
2021/03/09 01:55:35;;;;;;;12.85;7.45;;;-2.70;68.60;;;;;;5093006;28;20035;-73
2021/03/09 01:58:12;;;;;;;14.68;6.35;;;-2.70;68.70;;;;;;5092803;28;20042;-73
2021/03/09 02:00:41;;;;;;;12.75;6.57;;;-2.70;68.60;;;;;;5093404;28;20028;-73
2021/03/09 02:03:07;;;;;;;11.40;7.07;;;-2.60;68.50;;;;;;5067063;28;20025;-74
2021/03/09 02:05:33;;;;;;;12.27;6.75;;;-2.60;68.40;;;;;;5073104;28;20028;-73
2021/03/09 02:07:59;;;;;;;10.43;6.32;;;-2.60;68.30;;;;;;5066561;28;20383;-73
2021/03/09 02:10:26;;;;;;;11.93;6.45;;;-2.60;68.30;;;;;;5056931;28;20357;-73
2021/03/09 02:13:28;;;;;;;10.38;6.68;;;-2.60;68.10;;;;;;5078960;28;20459;-74
2021/03/09 02:16:02;;;;;;;10.88;5.72;;;-2.60;68.00;;;;;;5056966;28;20027;-73
2021/03/09 02:18:34;;;;;;;10.18;6.55;;;-2.60;67.80;;;;;;5093130;28;20387;-73
2021/03/09 02:21:27;;;;;;;9.95;5.43;;;-2.70;67.70;;;;;;5064452;28;20429;-73
2021/03/09 02:24:14;;;;;;;10.55;5.80;;;-2.70;67.70;;;;;;5074693;28;20027;-73
2021/03/09 02:26:58;;;;;;;12.38;6.40;;;-2.70;67.80;;;;;;5074586;28;20111;-74
2021/03/09 02:29:42;;;;;;;13.23;6.80;;;-2.70;67.80;;;;;;5065420;28;20028;-73
2021/03/09 02:32:14;;;;;;;14.45;7.47;;;-2.60;67.80;;;;;;5076568;28;20024;-73
2021/03/09 02:34:53;;;;;;;12.32;7.40;;;-2.60;67.60;;;;;;5075226;28;20028;-73
2021/03/09 02:37:22;;;;;;;11.30;6.63;;;-2.60;67.60;;;;;;5059965;28;20024;-73
2021/03/09 02:39:50;;;;;;;12.60;6.63;;;-2.70;67.50;;;;;;5075328;28;20028;-73
2021/03/09 02:42:25;;;;;;;9.95;6.95;;;-2.70;67.40;;;;;;5046442;28;20027;-73
2021/03/09 02:44:56;;;;;;;15.30;7.78;;;-2.70;67.40;;;;;;5074480;28;20012;-73
2021/03/09 02:47:24;;;;;;;14.63;8.23;;;-2.80;67.40;;;;;;5092344;28;20485;-72
2021/03/09 02:49:53;;;;;;;12.70;7.50;;;-2.80;67.50;;;;;;5074779;28;20028;-73
2021/03/09 02:52:22;;;;;;;14.43;7.47;;;-2.80;67.60;;;;;;5096297;28;20024;-73
2021/03/09 02:54:51;;;;;;;13.82;7.85;;;-2.90;67.60;;;;;;5096190;28;20047;-73
2021/03/09 02:57:19;;;;;;;15.05;7.93;;;-2.90;67.60;;;;;;5077754;28;20473;-73
2021/03/09 02:59:45;;;;;;;14.88;8.70;;;-2.90;67.80;;;;;;5096318;28;20405;-73
2021/03/09 03:02:18;;;;;;;13.90;8.07;;;-2.90;67.80;;;;;;5064650;28;20498;-73
2021/03/09 03:04:47;;;;;;;15.38;8.23;;;-3.00;67.80;;;;;;5096013;28;20028;-73
2021/03/09 03:07:14;;;;;;;16.27;8.07;;;-3.00;67.90;;;;;;5064983;28;20107;-73
2021/03/09 03:09:41;;;;;;;13.48;7.57;;;-3.00;67.90;;;;;;5062527;28;20482;-73
2021/03/09 03:12:09;;;;;;;11.60;7.43;;;-3.00;68.10;;;;;;5078140;28;20040;-73
2021/03/09 03:14:36;;;;;;;11.50;6.80;;;-3.00;68.20;;;;;;5096299;28;20020;-73
2021/03/09 03:17:02;;;;;;;11.60;7.20;;;-3.00;68.20;;;;;;5077293;28;20036;-73
2021/03/09 03:19:29;;;;;;;10.52;6.90;;;-3.00;68.10;;;;;;5095923;28;20032;-73
2021/03/09 03:21:56;;;;;;;10.25;6.85;;;-3.10;68.10;;;;;;5095535;28;20069;-70
2021/03/09 03:24:24;;;;;;;13.60;7.55;;;-3.10;68.20;;;;;;5096048;28;20050;-72
2021/03/09 03:26:52;;;;;;;11.98;6.82;;;-3.10;68.20;;;;;;5077111;28;20024;-72
2021/03/09 03:29:20;;;;;;;11.18;6.22;;;-3.10;68.40;;;;;;5095600;28;20111;-72
2021/03/09 03:31:48;;;;;;;11.10;6.38;;;-3.10;68.40;;;;;;5077091;28;20059;-73
2021/03/09 03:34:15;;;;;;;11.55;6.80;;;-3.20;68.50;;;;;;5077303;28;20024;-72
2021/03/09 03:36:41;;;;;;;10.10;6.45;;;-3.20;68.60;;;;;;5077614;28;20070;-73
2021/03/09 03:39:07;;;;;;;9.32;6.28;;;-3.10;68.70;;;;;;5057437;28;20052;-73
2021/03/09 03:41:33;;;;;;;9.68;6.38;;;-3.10;68.90;;;;;;5086737;28;20047;-73
2021/03/09 03:43:59;;;;;;;11.73;6.75;;;-3.10;69.00;;;;;;5062874;28;20027;-73
2021/03/09 03:46:27;;;;;;;12.57;6.75;;;-3.00;69.40;;;;;;5095459;28;20028;-73
2021/03/09 03:48:53;;;;;;;10.23;6.35;;;-2.90;69.40;;;;;;5076722;28;20119;-73
2021/03/09 03:51:24;;;;;;;11.15;6.72;;;-2.90;69.40;;;;;;5076774;28;20135;-72
2021/03/09 03:53:50;;;;;;;11.60;5.97;;;-2.80;69.50;;;;;;5080704;28;20482;-71
2021/03/09 03:56:40;;;;;;;10.05;6.13;;;-2.70;69.40;;;;;;5095137;28;20032;-72
2021/03/09 03:59:29;;;;;;;9.85;6.53;;;-2.60;69.40;;;;;;5069656;28;20037;-73
2021/03/09 04:01:55;;;;;;;10.13;5.95;;;-2.50;69.30;;;;;;5083934;28;20051;-73
2021/03/09 04:04:25;;;;;;;12.70;6.25;;;-2.50;69.20;;;;;;5087906;28;20021;-74
2021/03/09 04:06:54;;;;;;;11.38;6.57;;;-2.40;69.10;;;;;;5083647;28;20018;-74
2021/03/09 04:09:22;;;;;;;12.20;6.72;;;-2.40;69.10;;;;;;5079561;28;20049;-74
2021/03/09 04:11:48;;;;;;;11.10;6.63;;;-2.40;69.00;;;;;;5077959;28;20040;-71
2021/03/09 04:14:16;;;;;;;11.77;6.28;;;-2.30;69.10;;;;;;5056363;28;20050;-74
2021/03/09 04:16:44;;;;;;;9.43;6.03;;;-2.20;69.00;;;;;;5091292;28;20024;-75
2021/03/09 04:19:12;;;;;;;9.98;6.38;;;-2.20;68.90;;;;;;5067295;28;20390;-74
2021/03/09 04:21:41;;;;;;;11.05;6.40;;;-2.10;69.00;;;;;;5078685;28;20058;-75
2021/03/09 04:24:09;;;;;;;10.70;7.05;;;-2.00;68.70;;;;;;5064228;28;20031;-74
2021/03/09 04:26:36;;;;;;;12.05;6.63;;;-2.00;68.80;;;;;;5062033;28;20028;-76
2021/03/09 04:29:03;;;;;;;9.65;6.32;;;-1.90;69.00;;;;;;5056151;28;20035;-74
2021/03/09 04:31:29;;;;;;;12.13;6.25;;;-1.70;69.40;;;;;;5086949;28;20031;-75
2021/03/09 04:33:55;;;;;;;15.45;7.78;;;-1.40;69.70;;;;;;5076088;28;20043;-75
2021/03/09 04:36:22;;;;;;;11.88;6.50;;;-1.10;69.00;;;;;;5094366;28;20458;-75
2021/03/09 04:38:48;;;;;;;9.15;6.18;;;-1.10;67.90;;;;;;5094040;28;20059;-75
2021/03/09 04:41:15;;;;;;;13.00;6.75;;;-1.10;67.40;;;;;;5094265;28;20340;-75
2021/03/09 04:43:41;;;;;;;14.95;7.90;;;-1.20;67.20;;;;;;5075866;28;20485;-75
2021/03/09 04:46:08;;;;;;;14.38;7.45;;;-1.20;67.10;;;;;;5094143;28;20466;-75
2021/03/09 04:48:39;;;;;;;12.27;6.80;;;-1.30;67.00;;;;;;5094098;28;20032;-75
2021/03/09 04:51:14;;;;;;;8.70;5.70;;;-1.30;67.10;;;;;;5093835;28;20118;-74
2021/03/09 04:53:41;;;;;;;12.45;6.50;;;-1.30;67.10;;;;;;5075974;28;20081;-74
2021/03/09 04:56:07;;;;;;;10.15;6.70;;;-1.30;67.00;;;;;;5073778;28;20024;-75
2021/03/09 04:58:33;;;;;;;11.57;5.97;;;-1.40;66.90;;;;;;5085333;28;20028;-74
2021/03/09 05:00:59;;;;;;;10.98;6.40;;;-1.40;67.00;;;;;;5061017;28;20069;-74
2021/03/09 05:03:25;;;;;;;9.27;5.85;;;-1.40;67.00;;;;;;5093752;28;20381;-74
2021/03/09 05:05:54;;;;;;;13.20;7.72;;;-1.30;67.10;;;;;;5093402;28;20039;-74
2021/03/09 05:08:20;;;;;;;14.18;6.82;;;-1.40;66.90;;;;;;5075537;28;20046;-71
2021/03/09 05:10:47;;;;;;;9.93;6.25;;;-1.30;67.10;;;;;;5081144;28;20028;-74
2021/03/09 05:13:17;;;;;;;11.45;6.50;;;-1.30;66.90;;;;;;5068922;28;20055;-74
2021/03/09 05:15:43;;;;;;;11.95;6.90;;;-1.30;67.00;;;;;;5088133;28;20024;-74
2021/03/09 05:18:09;;;;;;;16.73;7.18;;;-1.20;67.00;;;;;;5086777;28;20024;-75
2021/03/09 05:20:35;;;;;;;13.18;6.43;;;-1.20;67.00;;;;;;5071129;28;20115;-74
2021/03/09 05:23:01;;;;;;;8.75;6.03;;;-1.20;66.80;;;;;;5060491;28;20082;-75
2021/03/09 05:25:26;;;;;;;14.52;6.78;;;-1.20;66.90;;;;;;5072551;28;20408;-75
2021/03/09 05:27:52;;;;;;;10.02;6.22;;;-1.10;66.90;;;;;;5093063;28;20028;-75
2021/03/09 05:30:21;;;;;;;11.07;6.47;;;-1.00;66.90;;;;;;5048101;28;20044;-76
2021/03/09 05:32:47;;;;;;;13.07;6.28;;;-1.00;66.60;;;;;;5053016;28;20382;-73
2021/03/09 05:35:14;;;;;;;16.08;8.70;;;-1.00;66.70;;;;;;5058162;28;20491;-71
2021/03/09 05:37:41;;;;;;;13.15;6.38;;;-0.90;66.90;;;;;;5064183;28;20521;-71
2021/03/09 05:40:09;;;;;;;12.02;6.75;;;-0.80;67.00;;;;;;5080088;28;20020;-70
2021/03/09 05:42:35;;;;;;;13.65;6.78;;;-0.70;66.90;;;;;;5065419;28;20017;-72
2021/03/09 05:45:03;;;;;;;13.27;6.78;;;-0.50;66.90;;;;;;5070129;28;20048;-72
2021/03/09 05:47:29;;;;;;;13.70;6.38;;;-0.40;66.60;;;;;;5081862;28;20087;-72
2021/03/09 05:49:57;;;;;;;16.80;6.63;;;-0.40;66.10;;;;;;5055509;28;20036;-72
2021/03/09 05:52:23;;;;;;;12.95;6.32;;;-0.30;66.00;;;;;;5061423;28;20332;-74
2021/03/09 05:54:49;;;;;;;13.05;6.47;;;-0.30;65.90;;;;;;5076602;28;20044;-72
2021/03/09 05:57:15;;;;;;;10.35;6.47;;;-0.20;65.90;;;;;;5049636;28;20044;-72
2021/03/09 05:59:42;;;;;;;12.13;6.78;;;-0.20;66.00;;;;;;5048794;28;20025;-71
2021/03/09 06:02:08;;;;;;;18.85;7.47;;;-0.10;65.70;;;;;;5051989;28;20059;-73
2021/03/09 06:04:35;;;;;;;16.38;6.90;;;0.00;65.50;;;;;;5069644;28;20467;-73
2021/03/09 06:07:02;;;;;;;11.45;6.68;;;0.20;65.70;;;;;;5076606;28;20036;-69
2021/03/09 06:09:35;;;;;;;15.35;8.52;;;0.30;65.30;;;;;;5044556;28;20145;-73
2021/03/09 06:12:06;;;;;;;12.70;6.05;;;0.40;64.90;;;;;;5064027;28;20102;-74
2021/03/09 06:14:32;;;;;;;11.35;6.20;;;0.50;64.80;;;;;;5051843;28;20086;-73
2021/03/09 06:16:58;;;;;;;8.77;5.63;;;0.50;64.40;;;;;;5086377;28;20037;-74
2021/03/09 06:19:44;;;;;;;7.53;4.60;;;0.60;64.30;;;;;;5081500;28;20585;-74
2021/03/09 06:22:11;;;;;;;8.85;5.28;;;0.70;63.90;;;;;;5080121;28;20078;-73
2021/03/09 06:24:38;;;;;;;10.80;5.22;;;0.80;63.80;;;;;;5054607;28;20033;-73
2021/03/09 06:27:21;;;;;;;8.63;5.45;;;0.90;63.70;;;;;;5056782;28;20036;-70
2021/03/09 06:29:47;;;;;;;8.20;5.32;;;1.10;63.50;;;;;;5074731;28;20040;-77
2021/03/09 06:32:15;;;;;;;9.32;5.30;;;1.40;63.20;;;;;;5078951;28;20462;-72
2021/03/09 06:34:41;;;;;;;9.05;4.80;;;1.40;62.60;;;;;;5057696;28;20123;-76
2021/03/09 06:37:10;;;;;;;8.73;5.18;;;1.40;62.40;;;;;;5082958;28;20143;-71
2021/03/09 06:39:51;;;;;;;8.68;4.63;;;1.60;62.20;;;;;;5065966;28;20039;-85
2021/03/09 06:42:42;;;;;;;10.10;5.40;;;1.60;61.70;;;;;;5071815;28;20024;-71
2021/03/09 06:45:13;;;;;;;9.13;5.50;;;1.80;61.60;;;;;;5064918;28;20067;-71
2021/03/09 06:47:47;;;;;;;10.88;6.00;;;1.90;61.00;;;;;;5075384;28;20017;-71
2021/03/09 06:50:14;;;;;;;10.02;4.85;;;1.90;60.60;;;;;;5069228;28;20424;-71
2021/03/09 06:52:42;;;;;;;11.25;5.03;;;1.90;60.50;;;;;;5053118;28;20103;-71
2021/03/09 06:55:10;;;;;;;8.70;4.80;;;1.90;60.40;;;;;;5085337;28;20043;-72
2021/03/09 06:57:36;;;;;;;9.27;5.00;;;2.00;60.40;;;;;;5084004;28;20071;-71
2021/03/09 07:00:06;;;;;;;6.45;4.55;;;1.90;60.20;;;;;;5062399;28;20028;-71
2021/03/09 07:02:32;;;;;;;8.68;4.97;;;2.00;60.20;;;;;;5079551;28;20012;-71
2021/03/09 07:05:04;;;;;;;10.55;5.28;;;2.00;59.80;;;;;;5085548;28;20471;-71
2021/03/09 07:07:31;;;;;;;12.30;4.13;;;2.00;59.30;;;;;;5084701;28;20024;-72
2021/03/09 07:10:17;;;;;;;9.35;5.53;;;1.90;58.80;;;;;;5060715;28;20478;-72
2021/03/09 07:12:45;;;;;;;8.90;4.50;;;1.80;58.50;;;;;;5078554;28;20108;-70
2021/03/09 07:15:19;;;;;;;8.25;4.72;;;1.80;58.70;;;;;;5091060;28;20028;-69
2021/03/09 07:17:47;;;;;;;8.27;3.95;;;1.80;58.60;;;;;;5096161;28;20382;-69
2021/03/09 07:20:15;;;;;;;7.93;4.50;;;1.80;58.30;;;;;;5095609;28;20024;-71
2021/03/09 07:22:43;;;;;;;7.93;4.47;;;1.60;57.70;;;;;;5077725;28;20026;-70
2021/03/09 07:25:14;;;;;;;7.47;4.68;;;1.50;57.90;;;;;;5095434;28;20036;-71
2021/03/09 07:27:51;;;;;;;8.35;4.00;;;1.50;58.20;;;;;;5095601;28;20027;-71
2021/03/09 07:30:19;;;;;;;8.20;4.40;;;1.60;58.20;;;;;;5095116;28;20483;-70
2021/03/09 07:32:53;;;;;;;6.80;4.00;;;1.50;57.80;;;;;;5077334;28;20020;-71
2021/03/09 07:35:22;;;;;;;8.02;4.75;;;1.40;57.60;;;;;;5095069;28;20093;-71
2021/03/09 07:37:53;;;;;;;7.47;4.00;;;1.30;57.50;;;;;;5076730;28;20056;-71
2021/03/09 07:40:22;;;;;;;7.40;4.38;;;1.10;57.30;;;;;;5095154;28;20485;-71
2021/03/09 07:42:47;;;;;;;8.52;4.72;;;1.00;57.30;;;;;;5095630;28;20032;-71
2021/03/09 07:45:18;;;;;;;6.75;4.45;;;0.90;57.40;;;;;;5095140;28;20031;-71
2021/03/09 07:47:57;;;;;;;6.00;3.67;;;0.80;57.60;;;;;;5095358;28;20017;-70
2021/03/09 07:50:25;;;;;;;7.07;3.97;;;0.70;57.20;;;;;;5076856;28;20062;-73
2021/03/09 07:53:06;;;;;;;6.13;3.60;;;0.50;57.40;;;;;;5095397;28;20095;-71
2021/03/09 07:55:33;;;;;;;7.65;3.90;;;0.50;57.40;;;;;;5095443;28;20382;-71
2021/03/09 07:58:27;;;;;;;7.28;4.57;;;0.40;57.30;;;;;;5095055;28;20031;-71
2021/03/09 08:01:01;;;;;;;7.15;4.35;;;0.20;57.60;;;;;;5076820;28;20419;-70
2021/03/09 08:03:34;;;;;;;7.13;4.57;;;0.10;57.60;;;;;;5095601;28;20048;-70
2021/03/09 08:06:01;;;;;;;7.05;4.72;;;0.00;58.10;;;;;;5094929;28;20024;-71
2021/03/09 08:08:47;;;;;;;8.20;5.00;;;-0.10;58.30;;;;;;5095233;28;20473;-71
2021/03/09 08:11:19;;;;;;;7.53;4.78;;;-0.20;58.60;;;;;;5080108;28;20408;-70
2021/03/09 08:13:46;;;;;;;6.97;4.60;;;-0.30;59.10;;;;;;5095075;28;20024;-70
2021/03/09 08:16:20;;;;;;;7.13;4.70;;;-0.40;59.60;;;;;;5094969;28;20056;-70
2021/03/09 08:18:49;;;;;;;18.55;5.53;;;-0.40;60.30;;;;;;5094627;28;20030;-70
2021/03/09 08:21:19;;;;;;;8.48;4.80;;;-0.30;60.60;;;;;;5094459;28;20020;-71
2021/03/09 08:23:45;;;;;;;8.98;5.10;;;-0.30;60.80;;;;;;5076362;28;20020;-71
2021/03/09 08:26:23;;;;;;;9.48;5.28;;;-0.10;61.50;;;;;;5094893;28;20038;-71
2021/03/09 08:28:48;;;;;;;7.07;4.53;;;0.20;62.10;;;;;;5094218;28;20064;-70
2021/03/09 08:31:20;;;;;;;8.02;4.47;;;0.60;61.70;;;;;;5076131;28;20105;-71
2021/03/09 08:33:53;;;;;;;9.75;5.05;;;0.70;61.00;;;;;;5094265;28;20016;-71
2021/03/09 08:36:26;;;;;;;6.28;3.90;;;0.90;60.60;;;;;;5075856;28;20119;-71
2021/03/09 08:39:22;;;;;;;5.90;3.80;;;1.00;60.50;;;;;;5094035;28;20039;-71
2021/03/09 08:41:47;;;;;;;6.63;4.18;;;1.20;60.00;;;;;;5093907;28;20043;-70
2021/03/09 08:44:15;;;;;;;6.53;3.90;;;1.30;59.80;;;;;;5094073;28;20470;-70
2021/03/09 08:47:05;;;;;;;5.97;3.80;;;1.60;60.40;;;;;;5093929;28;20021;-71
2021/03/09 08:49:34;;;;;;;4.63;3.50;;;2.20;60.50;;;;;;5067230;28;20450;-71
2021/03/09 08:52:00;;;;;;;7.57;4.10;;;2.70;59.80;;;;;;5094308;28;20039;-71
2021/03/09 08:54:29;;;;;;;7.00;3.80;;;3.30;59.60;;;;;;5093904;28;20355;-71
2021/03/09 08:56:56;;;;;;;7.05;3.88;;;4.20;59.50;;;;;;5094210;28;20073;-71
2021/03/09 08:59:26;;;;;;;6.68;4.18;;;5.00;57.70;;;;;;5093760;28;20108;-71
2021/03/09 09:01:53;;;;;;;18.58;4.53;;;5.20;54.50;;;;;;5076137;28;20035;-71
2021/03/09 09:04:19;;;;;;;5.43;3.05;;;5.50;53.80;;;;;;5093852;28;20063;-71
2021/03/09 09:06:46;;;;;;;6.63;3.97;;;5.80;52.50;;;;;;5093940;28;20106;-71
2021/03/09 09:09:12;;;;;;;7.75;4.07;;;5.90;50.80;;;;;;5075420;28;20432;-72
2021/03/09 09:11:38;;;;;;;6.95;3.85;;;5.90;50.20;;;;;;5093816;28;20055;-72
2021/03/09 09:14:14;;;;;;;5.15;3.35;;;5.90;49.50;;;;;;5093810;28;20485;-71
2021/03/09 09:16:40;;;;;;;7.10;4.03;;;5.80;48.30;;;;;;5086789;28;20020;-71
2021/03/09 09:19:09;;;;;;;6.88;4.00;;;5.30;47.40;;;;;;5093543;28;20073;-71
2021/03/09 09:21:46;;;;;;;7.15;4.20;;;4.90;47.80;;;;;;5074459;28;20114;-71
2021/03/09 09:24:20;;;;;;;5.80;4.20;;;4.70;48.20;;;;;;5063656;28;20028;-72
2021/03/09 09:26:56;;;;;;;7.10;4.38;;;4.90;48.70;;;;;;5093595;28;20047;-71
2021/03/09 09:29:22;;;;;;;7.50;4.10;;;4.90;47.80;;;;;;5093649;28;20032;-71
2021/03/09 09:31:55;;;;;;;6.68;4.15;;;4.80;47.70;;;;;;5093120;28;20386;-71
2021/03/09 09:34:34;;;;;;;10.88;4.80;;;5.00;47.90;;;;;;5093125;28;20024;-71
2021/03/09 09:37:11;;;;;;;6.80;4.13;;;6.00;48.80;;;;;;5074924;28;20044;-72
2021/03/09 09:39:37;;;;;;;11.95;4.95;;;7.10;48.30;;;;;;5093688;28;20122;-72
2021/03/09 09:42:03;;;;;;;6.10;4.00;;;8.20;47.60;;;;;;5091637;28;20131;-72
2021/03/09 09:44:29;;;;;;;5.85;3.65;;;9.00;45.50;;;;;;5080665;28;20545;-72
2021/03/09 09:46:55;;;;;;;6.93;3.67;;;9.40;43.80;;;;;;5093351;28;20093;-72
2021/03/09 09:49:21;;;;;;;6.57;4.28;;;10.00;43.00;;;;;;5074552;28;20048;-71
2021/03/09 09:51:47;;;;;;;6.15;3.88;;;10.40;42.20;;;;;;5093248;28;20391;-71
2021/03/09 09:54:13;;;;;;;6.70;4.22;;;10.80;40.50;;;;;;5092747;28;20024;-72
2021/03/09 09:56:39;;;;;;;6.03;4.35;;;10.90;39.90;;;;;;5093231;28;20084;-71
2021/03/09 09:59:05;;;;;;;8.23;4.50;;;10.90;39.30;;;;;;5092451;28;20032;-71
2021/03/09 10:01:36;;;;;;;6.30;4.13;;;10.70;38.90;;;;;;5093008;28;20052;-71
2021/03/09 10:04:07;;;;;;;7.65;4.30;;;10.50;38.30;;;;;;5075066;28;20391;-71
2021/03/09 10:06:39;;;;;;;5.75;3.88;;;9.80;37.80;;;;;;5093051;28;20459;-70
2021/03/09 10:09:24;;;;;;;9.60;4.25;;;9.00;37.70;;;;;;5092805;28;20040;-70
2021/03/09 10:11:58;;;;;;;6.93;4.40;;;8.10;38.10;;;;;;5070207;28;20431;-70
2021/03/09 10:14:27;;;;;;;5.68;4.20;;;7.40;38.60;;;;;;5092742;28;20044;-70
2021/03/09 10:16:52;;;;;;;7.38;4.75;;;6.70;39.40;;;;;;5084291;28;20161;-70
2021/03/09 10:19:21;;;;;;;7.43;4.35;;;6.10;40.20;;;;;;5073249;28;20024;-70
2021/03/09 10:21:48;;;;;;;5.55;4.22;;;5.60;40.50;;;;;;5092871;28;20031;-71
2021/03/09 10:24:30;;;;;;;6.38;3.95;;;5.10;40.40;;;;;;5092893;28;20024;-70
2021/03/09 10:26:57;;;;;;;7.53;4.10;;;4.40;40.80;;;;;;5092484;28;20458;-71
2021/03/09 10:29:28;;;;;;;9.10;4.43;;;4.00;41.40;;;;;;5092829;28;20031;-71
2021/03/09 10:31:55;;;;;;;6.90;4.22;;;3.70;41.70;;;;;;5092588;28;20028;-71
2021/03/09 10:34:44;;;;;;;10.30;5.07;;;3.50;42.20;;;;;;5092787;28;20031;-71
2021/03/09 10:37:11;;;;;;;7.55;4.28;;;3.40;43.00;;;;;;5092172;28;20020;-71
2021/03/09 10:39:39;;;;;;;7.78;4.90;;;3.50;43.30;;;;;;5074638;28;20044;-71
2021/03/09 10:42:34;;;;;;;8.93;5.32;;;3.60;43.70;;;;;;5092626;28;20024;-71
2021/03/09 10:45:15;;;;;;;8.10;5.40;;;3.50;43.60;;;;;;5092589;28;20531;-70
2021/03/09 10:47:51;;;;;;;8.73;5.13;;;3.50;43.90;;;;;;5092198;28;20051;-71
2021/03/09 10:50:19;;;;;;;7.18;4.95;;;3.60;44.30;;;;;;5092736;28;20390;-71
2021/03/09 10:52:44;;;;;;;7.43;4.43;;;3.70;44.50;;;;;;5092418;28;20025;-71
2021/03/09 10:55:10;;;;;;;10.43;4.93;;;3.70;44.10;;;;;;5092124;28;20070;-70
2021/03/09 10:57:36;;;;;;;7.57;4.35;;;3.60;44.00;;;;;;5092244;28;20036;-71
2021/03/09 11:00:07;;;;;;;6.88;4.60;;;3.40;44.00;;;;;;5092483;28;20382;-71
2021/03/09 11:02:33;;;;;;;6.03;4.25;;;3.30;44.40;;;;;;5092456;28;20047;-71
2021/03/09 11:04:59;;;;;;;7.38;4.72;;;3.20;44.70;;;;;;5092135;28;20474;-71
2021/03/09 11:07:24;;;;;;;9.23;4.75;;;3.20;44.90;;;;;;5092492;28;20024;-71
2021/03/09 11:09:50;;;;;;;6.57;4.47;;;3.00;45.00;;;;;;5092865;28;20032;-71
2021/03/09 11:12:16;;;;;;;6.63;4.50;;;3.00;45.40;;;;;;5076727;28;20123;-71
2021/03/09 11:14:41;;;;;;;7.53;4.75;;;2.90;45.60;;;;;;5095512;28;20024;-72
2021/03/09 11:17:07;;;;;;;7.07;4.47;;;2.90;46.50;;;;;;5077573;28;20031;-70
2021/03/09 11:19:33;;;;;;;7.80;4.60;;;2.90;45.90;;;;;;5095945;28;20073;-70
2021/03/09 11:22:00;;;;;;;7.43;4.78;;;2.80;45.90;;;;;;5077343;28;20020;-70
2021/03/09 11:24:26;;;;;;;11.35;5.88;;;2.80;46.10;;;;;;5077393;28;20034;-70
2021/03/09 11:26:56;;;;;;;7.25;4.85;;;2.80;46.30;;;;;;5095342;28;20466;-71
2021/03/09 11:29:22;;;;;;;8.07;4.90;;;2.70;46.40;;;;;;5077596;28;20032;-71
2021/03/09 11:31:47;;;;;;;9.50;5.63;;;2.80;46.60;;;;;;5095113;28;20051;-71
2021/03/09 11:34:13;;;;;;;12.40;5.45;;;2.70;46.60;;;;;;5095620;28;20078;-71
2021/03/09 11:36:39;;;;;;;9.88;5.57;;;2.60;46.70;;;;;;5095482;28;20032;-70
2021/03/09 11:39:05;;;;;;;8.80;5.30;;;2.50;47.20;;;;;;5080765;28;20079;-71
2021/03/09 11:41:30;;;;;;;10.27;5.72;;;2.20;47.80;;;;;;5077534;28;20031;-70
2021/03/09 11:43:56;;;;;;;8.65;5.57;;;2.20;48.70;;;;;;5095295;28;20103;-71
2021/03/09 11:46:21;;;;;;;10.15;6.47;;;2.10;49.40;;;;;;5095960;28;20031;-71
2021/03/09 11:48:50;;;;;;;10.02;6.28;;;2.20;50.10;;;;;;5095397;28;20032;-71
2021/03/09 11:51:16;;;;;;;7.50;5.25;;;2.30;50.70;;;;;;5077150;28;20020;-70
2021/03/09 11:53:42;;;;;;;8.98;4.60;;;2.30;50.60;;;;;;5077326;28;20026;-70
2021/03/09 11:56:08;;;;;;;9.43;5.25;;;2.10;50.30;;;;;;5094979;28;20382;-71
2021/03/09 11:58:34;;;;;;;7.53;5.57;;;2.10;50.40;;;;;;5095345;28;20485;-71
2021/03/09 12:00:59;;;;;;;8.10;5.15;;;2.10;50.70;;;;;;5076825;28;20101;-71
2021/03/09 12:03:25;;;;;;;11.52;5.20;;;2.10;50.60;;;;;;5095143;28;20070;-71
2021/03/09 12:05:51;;;;;;;9.55;4.95;;;2.10;50.40;;;;;;5094469;28;20032;-71
2021/03/09 12:08:17;;;;;;;8.32;5.35;;;2.00;51.20;;;;;;5094893;28;20470;-71
2021/03/09 12:10:43;;;;;;;10.50;5.72;;;2.10;50.70;;;;;;5076853;28;20535;-71
2021/03/09 12:13:09;;;;;;;8.65;4.80;;;2.10;50.70;;;;;;5094899;28;20028;-71
2021/03/09 12:15:34;;;;;;;7.63;4.78;;;2.10;50.60;;;;;;5094935;28;20098;-71
2021/03/09 12:18:00;;;;;;;20.45;5.75;;;2.20;51.00;;;;;;5095044;28;20035;-71
2021/03/09 12:20:27;;;;;;;10.90;6.07;;;2.70;51.80;;;;;;5094687;28;20026;-71
2021/03/09 12:22:53;;;;;;;8.43;4.78;;;3.60;51.70;;;;;;5075493;28;20035;-71
2021/03/09 12:25:18;;;;;;;7.95;4.80;;;4.10;50.60;;;;;;5094371;28;20024;-71
2021/03/09 12:27:44;;;;;;;8.32;4.50;;;4.10;48.70;;;;;;5076604;28;20049;-71
2021/03/09 12:30:10;;;;;;;9.82;5.22;;;3.70;48.20;;;;;;5094492;28;20060;-71
2021/03/09 12:32:37;;;;;;;8.40;5.32;;;3.40;48.10;;;;;;5094768;28;20028;-71
2021/03/09 12:35:04;;;;;;;9.15;5.13;;;3.10;48.90;;;;;;5094581;28;20028;-70
2021/03/09 12:37:30;;;;;;;11.73;5.32;;;2.90;48.60;;;;;;5094354;28;20027;-71
2021/03/09 12:39:56;;;;;;;7.93;5.18;;;2.80;48.80;;;;;;5076439;28;20467;-72
2021/03/09 12:42:21;;;;;;;9.73;5.25;;;2.80;48.70;;;;;;5094152;28;20458;-71
2021/03/09 12:44:48;;;;;;;10.48;5.35;;;2.70;48.50;;;;;;5094545;28;20083;-71
2021/03/09 12:47:14;;;;;;;9.35;6.10;;;2.50;48.50;;;;;;5075890;28;20069;-71
2021/03/09 12:49:40;;;;;;;10.27;5.78;;;2.30;48.60;;;;;;5075891;28;20024;-71
2021/03/09 12:52:06;;;;;;;12.90;5.82;;;2.20;48.90;;;;;;5093965;28;20031;-73
2021/03/09 12:54:31;;;;;;;8.55;5.35;;;2.00;49.20;;;;;;5094035;28;20026;-71
2021/03/09 12:56:57;;;;;;;10.13;5.03;;;1.90;49.30;;;;;;5075936;28;20115;-71